Time;durP1;ratioP1;P1;durP2;ratioP2;P2;SDS_P1;SDS_P2;PMS_P1;PMS_P2;Temp;Humidity;BMP_temperature;BMP_pressure;BME280_temperature;BME280_humidity;BME280_pressure;Samples;Min_cycle;Max_cycle;Signal;HPM_P1;HPM_P2
2023/12/20 00:02:29;;;;;;;28.80;17.92;;;;;;;;;;10256187;28;20059;-52
2023/12/20 00:07:27;;;;;;;55.60;30.25;;;;;;;;;;10254226;28;20513;-52
2023/12/20 00:12:26;;;;;;;40.22;24.48;;;;;;;;;;10253613;28;20523;-54
2023/12/20 00:17:24;;;;;;;31.88;19.83;;;;;;;;;;10257190;28;20051;-53
2023/12/20 00:22:24;;;;;;;26.60;16.23;;;;;;;;;;10256222;28;20044;-53
2023/12/20 00:27:23;;;;;;;24.60;15.02;;;;;;;;;;10257045;28;20501;-52
2023/12/20 00:32:21;;;;;;;22.75;14.52;;;;;;;;;;10256729;28;20048;-51
2023/12/20 00:37:19;;;;;;;207.63;95.93;;;;;;;;;;10254952;28;20067;-47
2023/12/20 00:42:19;;;;;;;53.90;41.22;;;;;;;;;;10254677;28;20440;-52
2023/12/20 00:47:17;;;;;;;20.10;17.90;;;;;;;;;;10255111;28;20050;-50
2023/12/20 00:52:17;;;;;;;16.80;14.10;;;;;;;;;;10255598;28;20043;-52
2023/12/20 00:57:15;;;;;;;34.95;23.83;;;;;;;;;;10255508;28;20501;-53
2023/12/20 01:02:15;;;;;;;27.15;17.85;;;;;;;;;;10255958;28;20050;-51
2023/12/20 01:07:13;;;;;;;28.60;19.13;;;;;;;;;;10254498;28;20814;-53
2023/12/20 01:12:11;;;;;;;21.52;15.00;;;;;;;;;;10252655;28;20772;-54
2023/12/20 01:17:09;;;;;;;26.13;18.27;;;;;;;;;;10258855;28;20052;-52
2023/12/20 01:22:09;;;;;;;19.80;15.68;;;;;;;;;;10257477;28;20044;-52
2023/12/20 01:27:07;;;;;;;29.33;20.42;;;;;;;;;;10253951;28;20063;-53
2023/12/20 01:32:06;;;;;;;29.20;21.25;;;;;;;;;;10249838;28;20618;-53
2023/12/20 01:37:05;;;;;;;28.08;19.15;;;;;;;;;;10263305;28;20044;-52
2023/12/20 01:42:05;;;;;;;23.10;17.45;;;;;;;;;;10274568;28;20042;-52
2023/12/20 01:47:03;;;;;;;25.60;15.77;;;;;;;;;;10284390;28;20055;-53
2023/12/20 01:52:01;;;;;;;10.00;8.30;;;;;;;;;;10270096;28;20052;-52
2023/12/20 01:56:59;;;;;;;10.25;8.10;;;;;;;;;;10262820;28;20060;-54
2023/12/20 02:02:00;;;;;;;10.50;7.72;;;;;;;;;;10264242;28;20048;-52
2023/12/20 02:06:59;;;;;;;8.48;7.57;;;;;;;;;;10262663;28;20062;-53
2023/12/20 02:11:58;;;;;;;8.52;7.28;;;;;;;;;;10262088;28;20396;-50
2023/12/20 02:16:56;;;;;;;8.85;6.78;;;;;;;;;;10263078;28;20032;-53
2023/12/20 02:22:07;;;;;;;8.57;6.57;;;;;;;;;;10262369;27;20497;-52
2023/12/20 02:27:07;;;;;;;7.85;7.05;;;;;;;;;;10262417;28;20683;-51
2023/12/20 02:32:05;;;;;;;7.40;6.63;;;;;;;;;;10264244;28;20551;-53
2023/12/20 02:37:03;;;;;;;6.82;6.13;;;;;;;;;;10263933;28;20052;-53
2023/12/20 02:42:03;;;;;;;7.35;6.50;;;;;;;;;;10262322;28;20519;-54
2023/12/20 02:47:02;;;;;;;7.10;6.40;;;;;;;;;;10262292;28;20099;-51
2023/12/20 02:52:00;;;;;;;6.72;6.03;;;;;;;;;;10262393;28;20688;-52
2023/12/20 02:56:58;;;;;;;9.98;8.95;;;;;;;;;;10261343;28;20056;-49
2023/12/20 03:01:58;;;;;;;14.20;9.63;;;;;;;;;;10262848;28;20040;-51
2023/12/20 03:06:56;;;;;;;10.23;8.88;;;;;;;;;;10260972;28;20047;-52
2023/12/20 03:11:54;;;;;;;11.55;9.40;;;;;;;;;;10259532;28;20061;-52
2023/12/20 03:16:52;;;;;;;13.40;11.27;;;;;;;;;;10261271;28;20044;-49
2023/12/20 03:21:53;;;;;;;7.95;7.15;;;;;;;;;;10263314;28;20048;-48
2023/12/20 03:26:51;;;;;;;12.73;10.25;;;;;;;;;;10260767;28;20058;-55
2023/12/20 03:31:50;;;;;;;9.13;7.20;;;;;;;;;;10271103;28;20063;-55
2023/12/20 03:36:48;;;;;;;8.57;7.10;;;;;;;;;;10288712;28;20067;-52
2023/12/20 03:41:47;;;;;;;7.63;5.88;;;;;;;;;;10288662;28;20092;-51
2023/12/20 03:46:46;;;;;;;6.63;6.03;;;;;;;;;;10289522;28;20077;-52
2023/12/20 03:51:44;;;;;;;8.77;7.35;;;;;;;;;;10288232;28;20080;-52
2023/12/20 03:56:42;;;;;;;7.10;6.40;;;;;;;;;;10283550;28;20071;-53
2023/12/20 04:01:45;;;;;;;6.97;5.75;;;;;;;;;;10286080;28;20068;-51
2023/12/20 04:06:43;;;;;;;7.20;5.28;;;;;;;;;;10284690;28;20064;-52
2023/12/20 04:11:42;;;;;;;10.75;6.03;;;;;;;;;;10287612;28;20061;-52
2023/12/20 04:16:40;;;;;;;31.67;25.42;;;;;;;;;;10287533;28;20517;-52
2023/12/20 04:21:42;;;;;;;6.00;5.38;;;;;;;;;;10288448;28;20075;-50
2023/12/20 04:26:41;;;;;;;7.13;5.10;;;;;;;;;;10288485;28;20122;-52
2023/12/20 04:31:39;;;;;;;6.70;6.10;;;;;;;;;;10284543;28;20092;-51
2023/12/20 04:36:37;;;;;;;8.68;6.38;;;;;;;;;;10287739;28;20086;-51
2023/12/20 04:41:37;;;;;;;6.68;6.05;;;;;;;;;;10287113;28;20068;-46
2023/12/20 04:46:35;;;;;;;6.20;5.60;;;;;;;;;;10287250;28;20155;-48
2023/12/20 04:51:34;;;;;;;5.95;5.38;;;;;;;;;;10287322;28;20079;-46
2023/12/20 04:56:32;;;;;;;7.93;6.32;;;;;;;;;;10290841;28;20076;-50
2023/12/20 05:01:31;;;;;;;12.02;9.85;;;;;;;;;;10288472;28;20522;-51
2023/12/20 05:06:30;;;;;;;9.15;7.68;;;;;;;;;;10286107;28;20068;-52
2023/12/20 05:11:28;;;;;;;6.88;6.18;;;;;;;;;;10283171;28;20075;-52
2023/12/20 05:16:27;;;;;;;8.55;7.18;;;;;;;;;;10285286;28;20068;-51
2023/12/20 05:21:27;;;;;;;5.85;5.35;;;;;;;;;;10287949;28;20065;-53
2023/12/20 05:26:25;;;;;;;10.45;6.72;;;;;;;;;;10275235;28;20123;-53
2023/12/20 05:31:23;;;;;;;4.82;4.40;;;;;;;;;;10301523;28;20565;-52
2023/12/20 05:36:21;;;;;;;12.27;9.60;;;;;;;;;;10293549;28;20064;-53
2023/12/20 05:41:21;;;;;;;10.57;8.18;;;;;;;;;;10282394;28;20068;-50
2023/12/20 05:46:21;;;;;;;8.13;7.22;;;;;;;;;;10285220;28;20075;-51
2023/12/20 05:51:19;;;;;;;10.85;9.70;;;;;;;;;;10283197;28;20057;-51
2023/12/20 05:56:17;;;;;;;8.18;7.22;;;;;;;;;;10304285;28;20091;-51
2023/12/20 06:01:17;;;;;;;7.13;6.43;;;;;;;;;;10261733;28;20510;-52
2023/12/20 06:06:17;;;;;;;7.18;6.43;;;;;;;;;;10284241;28;20143;-50
2023/12/20 06:11:15;;;;;;;7.45;6.13;;;;;;;;;;10294664;28;20768;-53
2023/12/20 06:16:14;;;;;;;8.38;7.32;;;;;;;;;;10296390;28;20075;-50
2023/12/20 06:21:14;;;;;;;8.57;7.55;;;;;;;;;;10304032;28;20494;-51
2023/12/20 06:26:12;;;;;;;7.43;6.68;;;;;;;;;;10296399;28;20139;-47
2023/12/20 06:31:10;;;;;;;8.48;7.32;;;;;;;;;;10285396;28;20113;-52
2023/12/20 06:36:11;;;;;;;11.68;10.68;;;;;;;;;;10288416;28;20068;-49
2023/12/20 06:41:13;;;;;;;8.10;4.68;;;;;;;;;;10288470;28;20128;-49
2023/12/20 06:46:13;;;;;;;5.43;4.90;;;;;;;;;;10289375;28;20550;-50
2023/12/20 06:51:12;;;;;;;22.50;14.43;;;;;;;;;;10286746;28;20072;-53
2023/12/20 06:56:12;;;;;;;55.70;32.20;;;;;;;;;;10286295;28;20516;-51
2023/12/20 07:01:16;;;;;;;77.15;43.35;;;;;;;;;;10290236;28;20079;-49
2023/12/20 07:06:16;;;;;;;202.77;113.70;;;;;;;;;;10291006;28;20080;-54
2023/12/20 07:11:16;;;;;;;149.85;75.53;;;;;;;;;;10289345;28;20459;-51
2023/12/20 07:16:14;;;;;;;101.55;64.28;;;;;;;;;;10287870;28;20084;-51
2023/12/20 07:21:13;;;;;;;172.57;109.90;;;;;;;;;;10291477;28;20623;-51
2023/12/20 07:26:11;;;;;;;98.20;60.78;;;;;;;;;;10292570;28;20080;-49
2023/12/20 07:31:11;;;;;;;109.22;68.90;;;;;;;;;;10290456;28;20511;-51
2023/12/20 07:36:09;;;;;;;109.88;70.45;;;;;;;;;;10288008;28;20072;-47
2023/12/20 07:41:10;;;;;;;104.03;62.33;;;;;;;;;;10287317;28;20072;-52
2023/12/20 07:46:08;;;;;;;106.35;63.58;;;;;;;;;;10289981;28;20073;-53
2023/12/20 07:51:09;;;;;;;98.25;58.42;;;;;;;;;;10289038;28;20068;-52
2023/12/20 07:56:17;;;;;;;63.60;39.20;;;;;;;;;;10284485;28;20072;-54
2023/12/20 08:01:16;;;;;;;60.78;39.05;;;;;;;;;;10291610;28;20103;-51
2023/12/20 08:06:17;;;;;;;46.47;31.98;;;;;;;;;;10277717;28;20855;-52
2023/12/20 08:11:15;;;;;;;246.57;174.82;;;;;;;;;;10238914;28;20550;-53
2023/12/20 08:16:15;;;;;;;61.75;40.65;;;;;;;;;;10251744;28;20044;-52
2023/12/20 08:21:14;;;;;;;49.00;36.67;;;;;;;;;;10253857;28;20063;-53
2023/12/20 08:26:13;;;;;;;52.78;36.40;;;;;;;;;;10256573;28;20090;-52
2023/12/20 08:31:14;;;;;;;42.67;31.50;;;;;;;;;;10255011;27;20044;-53
2023/12/20 08:36:13;;;;;;;20.48;14.98;;;;;;;;;;10269100;28;20127;-53
2023/12/20 08:41:11;;;;;;;29.17;19.38;;;;;;;;;;10256021;28;20050;-54
2023/12/20 08:46:12;;;;;;;54.78;38.22;;;;;;;;;;10261812;28;20105;-50
2023/12/20 08:51:11;;;;;;;56.67;36.20;;;;;;;;;;10257281;28;20390;-52
2023/12/20 08:56:09;;;;;;;44.85;31.35;;;;;;;;;;10255803;28;20050;-54
2023/12/20 09:01:07;;;;;;;48.30;34.30;;;;;;;;;;10255370;28;20505;-51
2023/12/20 09:06:07;;;;;;;45.00;35.00;;;;;;;;;;10269304;28;20052;-53
2023/12/20 09:11:05;;;;;;;24.60;19.77;;;;;;;;;;10255020;28;20093;-53
2023/12/20 09:16:04;;;;;;;27.13;19.83;;;;;;;;;;10257664;28;20424;-52
2023/12/20 09:21:03;;;;;;;34.90;25.40;;;;;;;;;;10255479;28;20047;-52
2023/12/20 09:26:02;;;;;;;32.92;22.52;;;;;;;;;;10253549;28;20055;-51
2023/12/20 09:31:00;;;;;;;103.20;59.80;;;;;;;;;;10253884;28;20063;-52
2023/12/20 09:35:59;;;;;;;51.13;31.52;;;;;;;;;;10288265;28;20112;-58
2023/12/20 09:40:57;;;;;;;38.08;24.92;;;;;;;;;;10298281;28;20513;-53
2023/12/20 09:45:58;;;;;;;60.63;39.60;;;;;;;;;;10291660;28;20551;-52
2023/12/20 09:50:56;;;;;;;52.80;32.83;;;;;;;;;;10292586;28;20079;-53
2023/12/20 09:55:54;;;;;;;45.50;30.80;;;;;;;;;;10288958;28;20135;-49
2023/12/20 10:00:53;;;;;;;54.10;36.10;;;;;;;;;;10297152;28;20135;-52
2023/12/20 10:05:55;;;;;;;46.15;31.75;;;;;;;;;;10288459;28;20051;-51
2023/12/20 10:10:54;;;;;;;45.15;29.88;;;;;;;;;;10297456;28;20125;-51
2023/12/20 10:15:53;;;;;;;49.67;30.55;;;;;;;;;;10305581;28;20120;-53
2023/12/20 10:20:51;;;;;;;39.65;26.98;;;;;;;;;;10291114;28;20143;-53
2023/12/20 10:25:58;;;;;;;41.58;35.25;;;;;;;;;;10308123;28;20078;-53
2023/12/20 10:30:57;;;;;;;44.30;36.75;;;;;;;;;;10316107;28;20094;-51
2023/12/20 10:35:56;;;;;;;53.75;39.05;;;;;;;;;;10293998;28;20132;-56
2023/12/20 10:40:56;;;;;;;50.85;41.85;;;;;;;;;;10288209;28;20557;-53
2023/12/20 10:45:55;;;;;;;41.30;30.58;;;;;;;;;;10278025;28;20143;-53
2023/12/20 10:50:56;;;;;;;34.17;19.77;;;;;;;;;;10276971;28;20139;-49
2023/12/20 10:55:56;;;;;;;49.85;30.20;;;;;;;;;;10257190;28;20052;-52
2023/12/20 11:01:00;;;;;;;40.30;26.33;;;;;;;;;;10265051;28;20044;-51
2023/12/20 11:06:01;;;;;;;41.33;27.37;;;;;;;;;;10307284;28;20123;-54
2023/12/20 11:11:01;;;;;;;112.03;60.88;;;;;;;;;;10306571;28;20078;-54
2023/12/20 11:16:01;;;;;;;62.45;34.40;;;;;;;;;;10319682;28;20067;-54
2023/12/20 11:21:01;;;;;;;39.13;24.83;;;;;;;;;;10301764;28;20072;-55
2023/12/20 11:25:59;;;;;;;62.72;35.10;;;;;;;;;;10309575;28;20079;-54
2023/12/20 11:30:59;;;;;;;33.60;23.83;;;;;;;;;;10288646;28;20454;-51
2023/12/20 11:36:00;;;;;;;20.73;15.30;;;;;;;;;;10271477;28;20720;-53
2023/12/20 11:41:03;;;;;;;16.85;12.52;;;;;;;;;;10280194;28;20166;-54
2023/12/20 11:46:06;;;;;;;21.75;13.60;;;;;;;;;;10304104;28;20063;-54
2023/12/20 11:51:11;;;;;;;19.33;13.73;;;;;;;;;;10300269;28;20150;-55
2023/12/20 11:56:09;;;;;;;18.60;12.25;;;;;;;;;;10295732;28;20135;-53
2023/12/20 12:01:08;;;;;;;14.20;12.18;;;;;;;;;;10291414;28;20126;-53
2023/12/20 12:06:07;;;;;;;18.80;12.68;;;;;;;;;;10270737;28;20059;-53
2023/12/20 12:11:07;;;;;;;22.17;16.02;;;;;;;;;;10269665;28;20044;-53
2023/12/20 12:16:05;;;;;;;25.65;19.80;;;;;;;;;;10311471;28;20079;-55
2023/12/20 12:21:04;;;;;;;24.15;18.30;;;;;;;;;;10310498;28;20079;-50
2023/12/20 12:26:14;;;;;;;25.80;18.52;;;;;;;;;;10278135;28;21121;-53
2023/12/20 12:31:15;;;;;;;24.98;17.88;;;;;;;;;;10273351;28;21840;-53
2023/12/20 12:36:15;;;;;;;21.70;16.58;;;;;;;;;;10288141;28;20129;-53
2023/12/20 12:41:16;;;;;;;27.70;20.52;;;;;;;;;;10288894;28;20127;-53
2023/12/20 12:46:14;;;;;;;23.65;15.45;;;;;;;;;;10283439;28;20139;-54
2023/12/20 12:51:13;;;;;;;23.33;14.40;;;;;;;;;;10277472;28;20069;-54
2023/12/20 12:56:13;;;;;;;31.95;16.60;;;;;;;;;;10279498;28;20438;-55
2023/12/20 13:01:13;;;;;;;33.20;19.33;;;;;;;;;;10277862;28;20608;-54
2023/12/20 13:06:12;;;;;;;98.80;56.53;;;;;;;;;;10283178;28;20068;-53
2023/12/20 13:11:10;;;;;;;38.10;25.00;;;;;;;;;;10280922;28;20064;-54
2023/12/20 13:16:09;;;;;;;50.45;26.52;;;;;;;;;;10283987;28;20099;-54
2023/12/20 13:21:08;;;;;;;52.97;26.13;;;;;;;;;;10280128;28;20088;-55
2023/12/20 13:26:07;;;;;;;51.15;28.60;;;;;;;;;;10283361;28;20498;-52
2023/12/20 13:31:05;;;;;;;148.90;80.75;;;;;;;;;;10290860;28;20957;-53
2023/12/20 13:36:05;;;;;;;107.20;64.32;;;;;;;;;;10299077;28;20068;-53
2023/12/20 13:41:06;;;;;;;46.75;27.40;;;;;;;;;;10299368;28;20137;-53
2023/12/20 13:46:04;;;;;;;25.88;17.85;;;;;;;;;;10301302;28;20044;-52
2023/12/20 13:51:03;;;;;;;26.75;16.25;;;;;;;;;;10293380;28;20875;-54
2023/12/20 13:56:01;;;;;;;23.40;17.42;;;;;;;;;;10316234;28;20147;-55
2023/12/20 14:01:01;;;;;;;39.00;23.30;;;;;;;;;;10313628;28;20068;-52
2023/12/20 14:05:59;;;;;;;58.45;35.45;;;;;;;;;;10313369;28;20124;-53
2023/12/20 14:10:58;;;;;;;87.80;53.30;;;;;;;;;;10314218;28;20087;-54
2023/12/20 14:15:56;;;;;;;74.18;44.97;;;;;;;;;;10300514;28;20564;-54
2023/12/20 14:20:56;;;;;;;133.27;76.50;;;;;;;;;;10316193;28;20488;-54
2023/12/20 14:25:55;;;;;;;81.63;50.58;;;;;;;;;;10314029;28;20072;-53
2023/12/20 14:30:54;;;;;;;40.10;31.20;;;;;;;;;;10305673;28;20139;-53
2023/12/20 14:35:53;;;;;;;75.95;41.20;;;;;;;;;;10296612;28;20186;-53
2023/12/20 14:40:52;;;;;;;96.70;64.53;;;;;;;;;;10309432;28;20124;-51
2023/12/20 14:45:51;;;;;;;80.85;56.58;;;;;;;;;;10313597;28;20064;-53
2023/12/20 14:50:51;;;;;;;152.52;103.78;;;;;;;;;;10295568;28;20139;-54
2023/12/20 14:55:50;;;;;;;61.83;46.90;;;;;;;;;;10303588;28;20712;-53
2023/12/20 15:00:50;;;;;;;46.67;34.88;;;;;;;;;;10312122;28;20068;-53
2023/12/20 15:05:48;;;;;;;44.72;32.47;;;;;;;;;;10304711;28;20072;-47
2023/12/20 15:10:47;;;;;;;70.88;43.60;;;;;;;;;;10289799;28;20573;-52
2023/12/20 15:15:45;;;;;;;47.53;34.03;;;;;;;;;;10310592;28;20158;-52
2023/12/20 15:20:47;;;;;;;58.25;37.55;;;;;;;;;;10302778;28;20056;-54
2023/12/20 15:25:45;;;;;;;68.93;61.30;;;;;;;;;;10282718;28;20135;-50
2023/12/20 15:30:44;;;;;;;52.78;42.42;;;;;;;;;;10279558;28;20140;-54
2023/12/20 15:35:42;;;;;;;72.72;59.88;;;;;;;;;;10285726;28;20506;-53
2023/12/20 15:40:42;;;;;;;106.78;78.28;;;;;;;;;;10285650;28;20098;-54
2023/12/20 15:45:40;;;;;;;105.97;74.93;;;;;;;;;;10283163;28;20079;-53
2023/12/20 15:50:38;;;;;;;62.30;48.85;;;;;;;;;;10278212;28;20077;-52
2023/12/20 15:55:36;;;;;;;74.53;61.22;;;;;;;;;;10282653;28;20485;-54
2023/12/20 16:00:36;;;;;;;79.72;61.50;;;;;;;;;;10283167;28;20084;-53
2023/12/20 16:05:35;;;;;;;59.53;47.03;;;;;;;;;;10294326;28;20095;-53
2023/12/20 16:10:33;;;;;;;33.67;30.00;;;;;;;;;;10294493;28;20140;-53
2023/12/20 16:15:31;;;;;;;32.38;25.17;;;;;;;;;;10306027;28;20106;-53
2023/12/20 16:20:31;;;;;;;27.70;20.77;;;;;;;;;;10283127;28;20188;-52
2023/12/20 16:25:29;;;;;;;35.85;25.48;;;;;;;;;;10304290;28;20095;-58
2023/12/20 16:30:27;;;;;;;23.80;18.65;;;;;;;;;;10315605;28;21145;-54
2023/12/20 16:35:26;;;;;;;21.33;16.40;;;;;;;;;;10302346;28;21173;-54
2023/12/20 16:40:25;;;;;;;25.20;19.50;;;;;;;;;;10294218;28;20124;-53
2023/12/20 16:45:24;;;;;;;21.58;17.45;;;;;;;;;;10310285;28;20505;-54
2023/12/20 16:50:22;;;;;;;32.88;25.27;;;;;;;;;;10290574;28;20159;-55
2023/12/20 16:55:20;;;;;;;28.33;19.42;;;;;;;;;;10273071;28;20123;-53
2023/12/20 17:00:23;;;;;;;36.92;25.52;;;;;;;;;;10309868;28;20052;-53
2023/12/20 17:05:22;;;;;;;32.50;21.48;;;;;;;;;;10297603;28;20068;-55
2023/12/20 17:10:20;;;;;;;24.08;18.10;;;;;;;;;;10301983;28;20106;-54
2023/12/20 17:15:20;;;;;;;21.08;17.67;;;;;;;;;;10284184;28;20115;-53
2023/12/20 17:20:18;;;;;;;28.45;19.77;;;;;;;;;;10300485;28;20082;-54
2023/12/20 17:25:16;;;;;;;26.13;19.40;;;;;;;;;;10308716;28;20068;-55
2023/12/20 17:30:15;;;;;;;29.52;18.73;;;;;;;;;;10281833;28;20811;-52
2023/12/20 17:35:16;;;;;;;13.27;11.27;;;;;;;;;;10310735;28;20079;-56
2023/12/20 17:40:15;;;;;;;23.75;19.70;;;;;;;;;;10309505;28;20087;-54
2023/12/20 17:45:13;;;;;;;60.20;39.03;;;;;;;;;;10299885;28;20139;-56
2023/12/20 17:50:12;;;;;;;31.98;22.70;;;;;;;;;;10277168;28;20461;-55
2023/12/20 17:55:11;;;;;;;29.70;22.15;;;;;;;;;;10296972;28;20064;-56
2023/12/20 18:00:14;;;;;;;30.27;21.17;;;;;;;;;;10310556;28;20518;-54
2023/12/20 18:05:14;;;;;;;41.50;30.90;;;;;;;;;;10299738;28;20470;-55
2023/12/20 18:10:14;;;;;;;22.10;18.27;;;;;;;;;;10314306;28;20072;-54
2023/12/20 18:15:13;;;;;;;26.42;19.90;;;;;;;;;;10298633;28;20067;-53
2023/12/20 18:20:11;;;;;;;64.55;41.90;;;;;;;;;;10316880;28;20056;-55
2023/12/20 18:25:10;;;;;;;43.65;32.25;;;;;;;;;;10302083;28;20083;-53
2023/12/20 18:30:10;;;;;;;30.23;24.90;;;;;;;;;;10315338;28;20545;-54
2023/12/20 18:35:14;;;;;;;24.33;20.63;;;;;;;;;;10308465;28;20072;-55
2023/12/20 18:40:12;;;;;;;23.02;17.95;;;;;;;;;;10310124;28;20513;-54
2023/12/20 18:45:15;;;;;;;24.42;19.63;;;;;;;;;;10299598;28;20087;-56
2023/12/20 18:50:13;;;;;;;22.50;18.63;;;;;;;;;;10310528;28;20875;-51
2023/12/20 18:55:11;;;;;;;20.08;16.95;;;;;;;;;;10290148;28;20541;-54
2023/12/20 19:00:10;;;;;;;25.65;22.23;;;;;;;;;;10301753;28;20072;-56
2023/12/20 19:05:10;;;;;;;34.22;29.92;;;;;;;;;;10283961;28;21625;-54
2023/12/20 19:10:09;;;;;;;23.38;19.17;;;;;;;;;;10303328;28;20490;-53
2023/12/20 19:15:09;;;;;;;27.80;21.08;;;;;;;;;;10309634;28;20068;-55
2023/12/20 19:20:10;;;;;;;25.77;21.38;;;;;;;;;;10306711;28;20068;-54
2023/12/20 19:25:08;;;;;;;27.38;22.38;;;;;;;;;;10314908;28;20092;-54
2023/12/20 19:30:07;;;;;;;27.95;23.27;;;;;;;;;;10300584;28;20075;-52
2023/12/20 19:35:06;;;;;;;31.73;27.15;;;;;;;;;;10298463;28;20504;-53
2023/12/20 19:40:07;;;;;;;33.08;27.25;;;;;;;;;;10311080;28;20056;-52
2023/12/20 19:45:06;;;;;;;34.33;27.05;;;;;;;;;;10302913;28;20077;-51
2023/12/20 19:50:04;;;;;;;39.60;32.30;;;;;;;;;;10299325;28;20076;-52
2023/12/20 19:55:03;;;;;;;35.28;30.00;;;;;;;;;;10299622;28;20064;-52
2023/12/20 20:00:04;;;;;;;46.20;38.22;;;;;;;;;;10297308;28;20082;-53
2023/12/20 20:05:09;;;;;;;42.30;35.85;;;;;;;;;;10307853;28;20067;-51
2023/12/20 20:10:09;;;;;;;41.67;34.63;;;;;;;;;;10307360;28;20068;-55
2023/12/20 20:15:09;;;;;;;48.20;38.10;;;;;;;;;;10304011;28;20166;-53
2023/12/20 20:20:08;;;;;;;52.70;41.35;;;;;;;;;;10309105;28;20095;-53
2023/12/20 20:25:06;;;;;;;61.05;48.13;;;;;;;;;;10282725;28;20124;-54
2023/12/20 20:30:05;;;;;;;46.92;39.35;;;;;;;;;;10275240;28;20163;-56
2023/12/20 20:35:06;;;;;;;65.32;48.10;;;;;;;;;;10253953;28;20062;-55
2023/12/20 20:40:04;;;;;;;104.65;65.35;;;;;;;;;;10272767;28;20158;-56
2023/12/20 20:45:03;;;;;;;60.97;46.05;;;;;;;;;;10259524;28;20042;-55
2023/12/20 20:50:01;;;;;;;55.15;46.15;;;;;;;;;;10250835;28;20612;-54
2023/12/20 20:55:02;;;;;;;59.30;48.63;;;;;;;;;;10295921;28;20123;-52
2023/12/20 21:00:00;;;;;;;64.70;50.28;;;;;;;;;;10248052;28;20042;-54
2023/12/20 21:04:59;;;;;;;58.75;48.53;;;;;;;;;;10288216;28;20115;-54
2023/12/20 21:09:57;;;;;;;53.88;44.88;;;;;;;;;;10287049;28;20123;-56
2023/12/20 21:14:57;;;;;;;62.63;48.67;;;;;;;;;;10252949;28;21141;-57
2023/12/20 21:19:55;;;;;;;56.70;47.05;;;;;;;;;;10249780;28;21547;-54
2023/12/20 21:24:53;;;;;;;52.67;43.10;;;;;;;;;;10300092;28;20119;-55
2023/12/20 21:29:52;;;;;;;53.28;40.80;;;;;;;;;;10281458;28;20746;-51
2023/12/20 21:34:51;;;;;;;54.78;42.47;;;;;;;;;;10294474;28;20596;-56
2023/12/20 21:39:50;;;;;;;44.25;38.30;;;;;;;;;;10265734;28;20162;-55
2023/12/20 21:44:49;;;;;;;58.63;49.05;;;;;;;;;;10250955;28;20062;-56
2023/12/20 21:49:47;;;;;;;117.20;75.88;;;;;;;;;;10255678;28;20047;-55
2023/12/20 21:54:47;;;;;;;70.40;53.55;;;;;;;;;;10277552;28;20127;-53
2023/12/20 21:59:45;;;;;;;55.97;44.05;;;;;;;;;;10260838;28;20056;-54
2023/12/20 22:04:43;;;;;;;53.75;43.28;;;;;;;;;;10261610;28;20044;-55
2023/12/20 22:09:41;;;;;;;53.67;42.58;;;;;;;;;;10257268;28;20044;-55
2023/12/20 22:14:41;;;;;;;44.65;35.33;;;;;;;;;;10255802;28;20054;-55
2023/12/20 22:19:39;;;;;;;44.05;35.42;;;;;;;;;;10257391;28;20062;-54
2023/12/20 22:24:38;;;;;;;57.63;43.38;;;;;;;;;;10258711;28;20047;-54
2023/12/20 22:29:36;;;;;;;42.53;35.67;;;;;;;;;;10260634;28;20896;-53
2023/12/20 22:34:36;;;;;;;44.33;34.38;;;;;;;;;;10258434;28;20926;-55
2023/12/20 22:39:35;;;;;;;41.58;33.67;;;;;;;;;;10260364;28;20051;-54
2023/12/20 22:44:33;;;;;;;40.60;35.10;;;;;;;;;;10261414;28;20043;-55
2023/12/20 22:49:31;;;;;;;40.22;33.60;;;;;;;;;;10260434;28;20047;-53
2023/12/20 22:54:31;;;;;;;42.08;33.03;;;;;;;;;;10261024;28;20047;-55
2023/12/20 22:59:29;;;;;;;36.67;29.40;;;;;;;;;;10258961;28;20554;-54
2023/12/20 23:04:27;;;;;;;34.03;28.77;;;;;;;;;;10260895;28;20840;-55
2023/12/20 23:09:26;;;;;;;30.92;26.67;;;;;;;;;;10259993;28;20050;-52
2023/12/20 23:14:25;;;;;;;37.28;29.70;;;;;;;;;;10261102;28;20044;-54
2023/12/20 23:19:23;;;;;;;35.38;30.30;;;;;;;;;;10261528;28;20036;-54
2023/12/20 23:24:22;;;;;;;36.83;28.65;;;;;;;;;;10261874;28;20429;-55
2023/12/20 23:29:20;;;;;;;33.40;28.55;;;;;;;;;;10261872;28;20437;-52
2023/12/20 23:34:20;;;;;;;35.40;27.25;;;;;;;;;;10259736;28;20062;-52
2023/12/20 23:39:18;;;;;;;34.28;27.60;;;;;;;;;;10258275;28;20044;-53
2023/12/20 23:44:16;;;;;;;30.10;26.42;;;;;;;;;;10260385;28;21254;-53
2023/12/20 23:49:14;;;;;;;31.08;26.60;;;;;;;;;;10261292;28;21253;-53
2023/12/20 23:54:14;;;;;;;30.50;25.02;;;;;;;;;;10262563;28;20047;-53
2023/12/20 23:59:12;;;;;;;28.23;22.48;;;;;;;;;;10258727;28;20058;-53
